sensor_id;sensor_type;location;lat;lon;timestamp;temperature;humidity
81800;DHT22;71195;52.528;5.704;2023-09-19T00:01:22;16.40;68.20
81800;DHT22;71195;52.528;5.704;2023-09-19T00:03:51;16.40;68.20
81800;DHT22;71195;52.528;5.704;2023-09-19T00:06:21;16.40;68.10
81800;DHT22;71195;52.528;5.704;2023-09-19T00:08:52;16.40;68.10
81800;DHT22;71195;52.528;5.704;2023-09-19T00:11:21;16.40;68.10
81800;DHT22;71195;52.528;5.704;2023-09-19T00:13:54;16.40;68.10
81800;DHT22;71195;52.528;5.704;2023-09-19T00:16:25;16.30;68.20
81800;DHT22;71195;52.528;5.704;2023-09-19T00:18:54;16.20;68.10
81800;DHT22;71195;52.528;5.704;2023-09-19T00:21:24;16.20;68.10
81800;DHT22;71195;52.528;5.704;2023-09-19T00:23:54;16.20;68.10
81800;DHT22;71195;52.528;5.704;2023-09-19T00:26:23;16.10;68.10
81800;DHT22;71195;52.528;5.704;2023-09-19T00:28:59;16.10;68.00
81800;DHT22;71195;52.528;5.704;2023-09-19T00:31:34;16.10;67.90
81800;DHT22;71195;52.528;5.704;2023-09-19T00:34:04;16.00;67.90
81800;DHT22;71195;52.528;5.704;2023-09-19T00:36:35;16.00;67.90
81800;DHT22;71195;52.528;5.704;2023-09-19T00:39:05;16.00;67.90
81800;DHT22;71195;52.528;5.704;2023-09-19T00:41:34;15.90;67.90
81800;DHT22;71195;52.528;5.704;2023-09-19T00:44:07;15.90;67.90
81800;DHT22;71195;52.528;5.704;2023-09-19T00:46:36;15.80;67.90
81800;DHT22;71195;52.528;5.704;2023-09-19T00:49:08;15.80;67.90
81800;DHT22;71195;52.528;5.704;2023-09-19T00:51:38;15.80;67.80
81800;DHT22;71195;52.528;5.704;2023-09-19T00:54:11;15.80;67.80
81800;DHT22;71195;52.528;5.704;2023-09-19T00:56:45;15.80;67.80
81800;DHT22;71195;52.528;5.704;2023-09-19T00:59:17;15.70;67.80
81800;DHT22;71195;52.528;5.704;2023-09-19T01:01:48;15.60;67.90
81800;DHT22;71195;52.528;5.704;2023-09-19T01:04:20;15.60;67.90
81800;DHT22;71195;52.528;5.704;2023-09-19T01:06:49;15.60;67.90
81800;DHT22;71195;52.528;5.704;2023-09-19T01:09:19;15.60;67.90
81800;DHT22;71195;52.528;5.704;2023-09-19T01:11:51;15.60;67.90
81800;DHT22;71195;52.528;5.704;2023-09-19T01:14:30;15.60;67.90
81800;DHT22;71195;52.528;5.704;2023-09-19T01:17:07;15.60;67.90
81800;DHT22;71195;52.528;5.704;2023-09-19T01:20:09;15.60;67.90
81800;DHT22;71195;52.528;5.704;2023-09-19T01:22:48;15.50;68.00
81800;DHT22;71195;52.528;5.704;2023-09-19T01:28:30;15.40;68.10
81800;DHT22;71195;52.528;5.704;2023-09-19T01:31:10;15.50;68.00
81800;DHT22;71195;52.528;5.704;2023-09-19T01:33:56;15.50;68.00
81800;DHT22;71195;52.528;5.704;2023-09-19T01:36:27;15.50;68.00
81800;DHT22;71195;52.528;5.704;2023-09-19T01:38:57;15.40;68.00
81800;DHT22;71195;52.528;5.704;2023-09-19T01:41:55;15.40;68.10
81800;DHT22;71195;52.528;5.704;2023-09-19T01:44:34;15.40;68.00
81800;DHT22;71195;52.528;5.704;2023-09-19T01:47:13;15.50;68.00
81800;DHT22;71195;52.528;5.704;2023-09-19T01:49:54;15.50;68.00
81800;DHT22;71195;52.528;5.704;2023-09-19T01:52:28;15.40;68.00
81800;DHT22;71195;52.528;5.704;2023-09-19T01:55:03;15.40;68.00
81800;DHT22;71195;52.528;5.704;2023-09-19T01:57:42;15.40;68.10
81800;DHT22;71195;52.528;5.704;2023-09-19T02:00:13;15.40;68.10
81800;DHT22;71195;52.528;5.704;2023-09-19T02:02:47;15.40;68.10
81800;DHT22;71195;52.528;5.704;2023-09-19T02:05:22;15.40;68.10
81800;DHT22;71195;52.528;5.704;2023-09-19T02:07:53;15.40;68.20
81800;DHT22;71195;52.528;5.704;2023-09-19T02:10:23;15.40;68.10
81800;DHT22;71195;52.528;5.704;2023-09-19T02:12:52;15.40;68.00
81800;DHT22;71195;52.528;5.704;2023-09-19T02:15:22;15.30;68.10
81800;DHT22;71195;52.528;5.704;2023-09-19T02:17:54;15.30;68.20
81800;DHT22;71195;52.528;5.704;2023-09-19T02:20:25;15.30;68.20
81800;DHT22;71195;52.528;5.704;2023-09-19T02:22:54;15.40;68.10
81800;DHT22;71195;52.528;5.704;2023-09-19T02:25:24;15.30;68.20
81800;DHT22;71195;52.528;5.704;2023-09-19T02:27:54;15.30;68.10
81800;DHT22;71195;52.528;5.704;2023-09-19T02:30:24;15.40;68.10
81800;DHT22;71195;52.528;5.704;2023-09-19T02:32:58;15.40;68.10
81800;DHT22;71195;52.528;5.704;2023-09-19T02:35:28;15.40;68.10
81800;DHT22;71195;52.528;5.704;2023-09-19T02:38:01;15.40;68.10
81800;DHT22;71195;52.528;5.704;2023-09-19T02:40:32;15.40;68.20
81800;DHT22;71195;52.528;5.704;2023-09-19T02:43:03;15.40;68.20
81800;DHT22;71195;52.528;5.704;2023-09-19T02:45:34;15.40;68.00
81800;DHT22;71195;52.528;5.704;2023-09-19T02:48:06;15.40;68.10
81800;DHT22;71195;52.528;5.704;2023-09-19T02:50:38;15.50;68.00
81800;DHT22;71195;52.528;5.704;2023-09-19T02:53:08;15.50;68.00
81800;DHT22;71195;52.528;5.704;2023-09-19T02:55:39;15.50;67.90
81800;DHT22;71195;52.528;5.704;2023-09-19T02:58:09;15.50;67.90
81800;DHT22;71195;52.528;5.704;2023-09-19T03:00:41;15.50;67.90
81800;DHT22;71195;52.528;5.704;2023-09-19T03:03:16;15.50;67.90
81800;DHT22;71195;52.528;5.704;2023-09-19T03:05:45;15.50;67.90
81800;DHT22;71195;52.528;5.704;2023-09-19T03:08:18;15.50;68.00
81800;DHT22;71195;52.528;5.704;2023-09-19T03:10:48;15.50;67.90
81800;DHT22;71195;52.528;5.704;2023-09-19T03:13:17;15.50;68.00
81800;DHT22;71195;52.528;5.704;2023-09-19T03:15:46;15.50;68.00
81800;DHT22;71195;52.528;5.704;2023-09-19T03:18:22;15.60;67.90
81800;DHT22;71195;52.528;5.704;2023-09-19T03:20:53;15.60;67.90
81800;DHT22;71195;52.528;5.704;2023-09-19T03:23:23;15.60;67.90
81800;DHT22;71195;52.528;5.704;2023-09-19T03:25:52;15.50;67.90
81800;DHT22;71195;52.528;5.704;2023-09-19T03:28:22;15.50;68.00
81800;DHT22;71195;52.528;5.704;2023-09-19T03:31:00;15.50;68.00
81800;DHT22;71195;52.528;5.704;2023-09-19T03:33:33;15.50;68.00
81800;DHT22;71195;52.528;5.704;2023-09-19T03:36:04;15.50;68.10
81800;DHT22;71195;52.528;5.704;2023-09-19T03:38:34;15.50;68.00
81800;DHT22;71195;52.528;5.704;2023-09-19T03:41:03;15.50;68.10
81800;DHT22;71195;52.528;5.704;2023-09-19T03:43:35;15.50;68.00
81800;DHT22;71195;52.528;5.704;2023-09-19T03:46:04;15.50;68.10
81800;DHT22;71195;52.528;5.704;2023-09-19T03:48:37;15.50;68.10
81800;DHT22;71195;52.528;5.704;2023-09-19T03:51:07;15.40;68.10
81800;DHT22;71195;52.528;5.704;2023-09-19T03:53:36;15.50;68.10
81800;DHT22;71195;52.528;5.704;2023-09-19T03:56:06;15.50;68.00
81800;DHT22;71195;52.528;5.704;2023-09-19T03:58:35;15.50;68.00
81800;DHT22;71195;52.528;5.704;2023-09-19T04:01:06;15.50;68.00
81800;DHT22;71195;52.528;5.704;2023-09-19T04:03:38;15.50;67.90
81800;DHT22;71195;52.528;5.704;2023-09-19T04:06:14;15.50;67.90
81800;DHT22;71195;52.528;5.704;2023-09-19T04:08:44;15.50;67.90
81800;DHT22;71195;52.528;5.704;2023-09-19T04:11:13;15.40;67.90
81800;DHT22;71195;52.528;5.704;2023-09-19T04:13:42;15.50;67.90
81800;DHT22;71195;52.528;5.704;2023-09-19T04:16:11;15.50;67.90
81800;DHT22;71195;52.528;5.704;2023-09-19T04:18:43;15.50;67.90
81800;DHT22;71195;52.528;5.704;2023-09-19T04:21:13;15.50;67.90
81800;DHT22;71195;52.528;5.704;2023-09-19T04:23:42;15.40;67.90
81800;DHT22;71195;52.528;5.704;2023-09-19T04:26:12;15.50;68.00
81800;DHT22;71195;52.528;5.704;2023-09-19T04:28:43;15.40;68.00
81800;DHT22;71195;52.528;5.704;2023-09-19T04:31:12;15.40;68.00
81800;DHT22;71195;52.528;5.704;2023-09-19T04:33:44;15.40;68.10
81800;DHT22;71195;52.528;5.704;2023-09-19T04:36:13;15.40;68.10
81800;DHT22;71195;52.528;5.704;2023-09-19T04:38:42;15.40;68.10
81800;DHT22;71195;52.528;5.704;2023-09-19T04:41:12;15.40;68.10
81800;DHT22;71195;52.528;5.704;2023-09-19T04:43:41;15.40;68.10
81800;DHT22;71195;52.528;5.704;2023-09-19T04:46:10;15.40;68.20
81800;DHT22;71195;52.528;5.704;2023-09-19T04:48:43;15.40;68.20
81800;DHT22;71195;52.528;5.704;2023-09-19T04:51:12;15.40;68.20
81800;DHT22;71195;52.528;5.704;2023-09-19T04:53:41;15.30;68.20
81800;DHT22;71195;52.528;5.704;2023-09-19T04:56:10;15.30;68.30
81800;DHT22;71195;52.528;5.704;2023-09-19T04:58:39;15.30;68.20
81800;DHT22;71195;52.528;5.704;2023-09-19T05:01:08;15.30;68.20
81800;DHT22;71195;52.528;5.704;2023-09-19T05:03:43;15.30;68.20
81800;DHT22;71195;52.528;5.704;2023-09-19T05:06:18;15.20;68.20
81800;DHT22;71195;52.528;5.704;2023-09-19T05:08:47;15.20;68.20
81800;DHT22;71195;52.528;5.704;2023-09-19T05:11:18;15.20;68.20
81800;DHT22;71195;52.528;5.704;2023-09-19T05:13:49;15.20;68.20
81800;DHT22;71195;52.528;5.704;2023-09-19T05:16:19;15.20;68.20
81800;DHT22;71195;52.528;5.704;2023-09-19T05:18:51;15.20;68.20
81800;DHT22;71195;52.528;5.704;2023-09-19T05:21:20;15.20;68.20
81800;DHT22;71195;52.528;5.704;2023-09-19T05:23:51;15.20;68.20
81800;DHT22;71195;52.528;5.704;2023-09-19T05:26:21;15.20;68.20
81800;DHT22;71195;52.528;5.704;2023-09-19T05:28:51;15.20;68.20
81800;DHT22;71195;52.528;5.704;2023-09-19T05:31:20;15.20;68.20
81800;DHT22;71195;52.528;5.704;2023-09-19T05:33:52;15.20;68.00
81800;DHT22;71195;52.528;5.704;2023-09-19T05:36:21;15.20;68.00
81800;DHT22;71195;52.528;5.704;2023-09-19T05:38:51;15.30;68.00
81800;DHT22;71195;52.528;5.704;2023-09-19T05:41:20;15.30;67.90
81800;DHT22;71195;52.528;5.704;2023-09-19T05:43:49;15.30;67.90
81800;DHT22;71195;52.528;5.704;2023-09-19T05:46:19;15.30;67.90
81800;DHT22;71195;52.528;5.704;2023-09-19T05:48:48;15.30;67.90
81800;DHT22;71195;52.528;5.704;2023-09-19T05:51:20;15.30;68.00
81800;DHT22;71195;52.528;5.704;2023-09-19T05:53:49;15.40;67.90
81800;DHT22;71195;52.528;5.704;2023-09-19T05:56:20;15.40;67.90
81800;DHT22;71195;52.528;5.704;2023-09-19T05:58:49;15.40;67.80
81800;DHT22;71195;52.528;5.704;2023-09-19T06:01:18;15.40;67.90
81800;DHT22;71195;52.528;5.704;2023-09-19T06:03:47;15.40;67.90
81800;DHT22;71195;52.528;5.704;2023-09-19T06:06:19;15.40;67.90
81800;DHT22;71195;52.528;5.704;2023-09-19T06:08:50;15.40;67.80
81800;DHT22;71195;52.528;5.704;2023-09-19T06:11:19;15.40;67.80
81800;DHT22;71195;52.528;5.704;2023-09-19T06:13:51;15.40;67.80
81800;DHT22;71195;52.528;5.704;2023-09-19T06:16:20;15.50;67.80
81800;DHT22;71195;52.528;5.704;2023-09-19T06:18:49;15.50;67.90
81800;DHT22;71195;52.528;5.704;2023-09-19T06:21:22;15.50;67.80
81800;DHT22;71195;52.528;5.704;2023-09-19T06:23:51;15.50;67.80
81800;DHT22;71195;52.528;5.704;2023-09-19T06:26:20;15.50;67.90
81800;DHT22;71195;52.528;5.704;2023-09-19T06:28:49;15.50;67.90
81800;DHT22;71195;52.528;5.704;2023-09-19T06:31:18;15.50;67.90
81800;DHT22;71195;52.528;5.704;2023-09-19T06:33:49;15.50;67.90
81800;DHT22;71195;52.528;5.704;2023-09-19T06:36:21;15.50;67.90
81800;DHT22;71195;52.528;5.704;2023-09-19T06:38:50;15.50;67.90
81800;DHT22;71195;52.528;5.704;2023-09-19T06:41:20;15.60;67.90
81800;DHT22;71195;52.528;5.704;2023-09-19T06:43:51;15.60;67.90
81800;DHT22;71195;52.528;5.704;2023-09-19T06:46:20;15.60;67.90
81800;DHT22;71195;52.528;5.704;2023-09-19T06:48:50;15.60;67.80
81800;DHT22;71195;52.528;5.704;2023-09-19T06:51:22;15.60;67.70
81800;DHT22;71195;52.528;5.704;2023-09-19T06:53:51;15.70;67.70
81800;DHT22;71195;52.528;5.704;2023-09-19T06:56:22;15.70;67.70
81800;DHT22;71195;52.528;5.704;2023-09-19T06:58:52;15.80;67.70
81800;DHT22;71195;52.528;5.704;2023-09-19T07:01:21;15.80;67.70
81800;DHT22;71195;52.528;5.704;2023-09-19T07:03:51;15.80;67.70
81800;DHT22;71195;52.528;5.704;2023-09-19T07:06:23;15.80;67.60
81800;DHT22;71195;52.528;5.704;2023-09-19T07:08:52;15.80;67.70
81800;DHT22;71195;52.528;5.704;2023-09-19T07:11:21;15.80;67.50
81800;DHT22;71195;52.528;5.704;2023-09-19T07:13:51;15.90;67.60
81800;DHT22;71195;52.528;5.704;2023-09-19T07:16:20;15.90;67.50
81800;DHT22;71195;52.528;5.704;2023-09-19T07:18:56;16.00;67.60
81800;DHT22;71195;52.528;5.704;2023-09-19T07:21:28;16.00;67.50
81800;DHT22;71195;52.528;5.704;2023-09-19T07:23:59;16.00;67.60
81800;DHT22;71195;52.528;5.704;2023-09-19T07:26:29;16.10;67.50
81800;DHT22;71195;52.528;5.704;2023-09-19T07:28:59;16.20;67.50
81800;DHT22;71195;52.528;5.704;2023-09-19T07:31:30;16.20;67.40
81800;DHT22;71195;52.528;5.704;2023-09-19T07:33:59;16.20;67.50
81800;DHT22;71195;52.528;5.704;2023-09-19T07:36:34;16.20;67.50
81800;DHT22;71195;52.528;5.704;2023-09-19T07:39:04;16.40;67.50
81800;DHT22;71195;52.528;5.704;2023-09-19T07:41:34;16.40;67.40
81800;DHT22;71195;52.528;5.704;2023-09-19T07:44:03;16.40;67.40
81800;DHT22;71195;52.528;5.704;2023-09-19T07:46:33;16.40;67.50
81800;DHT22;71195;52.528;5.704;2023-09-19T07:49:02;16.50;67.40
81800;DHT22;71195;52.528;5.704;2023-09-19T07:51:34;16.60;67.40
81800;DHT22;71195;52.528;5.704;2023-09-19T07:54:03;16.60;67.40
81800;DHT22;71195;52.528;5.704;2023-09-19T07:56:32;16.60;67.40
81800;DHT22;71195;52.528;5.704;2023-09-19T07:59:02;16.70;67.30
81800;DHT22;71195;52.528;5.704;2023-09-19T08:01:32;16.80;67.30
81800;DHT22;71195;52.528;5.704;2023-09-19T08:04:02;16.80;67.30
81800;DHT22;71195;52.528;5.704;2023-09-19T08:06:33;16.90;67.30
81800;DHT22;71195;52.528;5.704;2023-09-19T08:09:04;16.90;67.30
81800;DHT22;71195;52.528;5.704;2023-09-19T08:11:37;16.90;67.20
81800;DHT22;71195;52.528;5.704;2023-09-19T08:14:06;17.00;67.20
81800;DHT22;71195;52.528;5.704;2023-09-19T08:16:36;17.00;67.30
81800;DHT22;71195;52.528;5.704;2023-09-19T08:19:05;17.10;67.20
81800;DHT22;71195;52.528;5.704;2023-09-19T08:21:37;17.10;67.20
81800;DHT22;71195;52.528;5.704;2023-09-19T08:24:06;17.20;67.10
81800;DHT22;71195;52.528;5.704;2023-09-19T08:26:36;17.30;67.00
81800;DHT22;71195;52.528;5.704;2023-09-19T08:29:05;17.40;66.90
81800;DHT22;71195;52.528;5.704;2023-09-19T08:31:38;17.50;66.90
81800;DHT22;71195;52.528;5.704;2023-09-19T08:34:07;17.60;66.70
81800;DHT22;71195;52.528;5.704;2023-09-19T08:36:39;17.70;66.70
81800;DHT22;71195;52.528;5.704;2023-09-19T08:39:21;17.80;66.60
81800;DHT22;71195;52.528;5.704;2023-09-19T08:41:57;17.80;66.50
81800;DHT22;71195;52.528;5.704;2023-09-19T08:44:26;17.90;66.50
81800;DHT22;71195;52.528;5.704;2023-09-19T08:47:01;17.90;66.50
81800;DHT22;71195;52.528;5.704;2023-09-19T08:49:41;18.00;66.40
81800;DHT22;71195;52.528;5.704;2023-09-19T08:52:25;18.00;66.40
81800;DHT22;71195;52.528;5.704;2023-09-19T08:54:59;18.00;66.30
81800;DHT22;71195;52.528;5.704;2023-09-19T08:57:33;18.10;66.20
81800;DHT22;71195;52.528;5.704;2023-09-19T09:00:07;18.10;66.30
81800;DHT22;71195;52.528;5.704;2023-09-19T09:02:38;18.20;66.20
81800;DHT22;71195;52.528;5.704;2023-09-19T09:05:09;18.20;66.20
81800;DHT22;71195;52.528;5.704;2023-09-19T09:07:38;18.20;66.20
81800;DHT22;71195;52.528;5.704;2023-09-19T09:10:12;18.30;66.20
81800;DHT22;71195;52.528;5.704;2023-09-19T09:12:42;18.30;66.20
81800;DHT22;71195;52.528;5.704;2023-09-19T09:15:11;18.40;66.10
81800;DHT22;71195;52.528;5.704;2023-09-19T09:17:43;18.40;66.00
81800;DHT22;71195;52.528;5.704;2023-09-19T09:20:13;18.50;66.00
81800;DHT22;71195;52.528;5.704;2023-09-19T09:22:50;18.60;65.80
81800;DHT22;71195;52.528;5.704;2023-09-19T09:25:22;18.80;65.70
81800;DHT22;71195;52.528;5.704;2023-09-19T09:28:02;18.90;65.60
81800;DHT22;71195;52.528;5.704;2023-09-19T09:30:35;18.90;65.50
81800;DHT22;71195;52.528;5.704;2023-09-19T09:33:09;19.00;65.40
81800;DHT22;71195;52.528;5.704;2023-09-19T09:35:47;19.10;65.40
81800;DHT22;71195;52.528;5.704;2023-09-19T09:38:19;19.20;65.20
81800;DHT22;71195;52.528;5.704;2023-09-19T09:40:55;19.20;65.20
81800;DHT22;71195;52.528;5.704;2023-09-19T09:43:29;19.30;65.00
81800;DHT22;71195;52.528;5.704;2023-09-19T09:46:23;19.30;65.00
81800;DHT22;71195;52.528;5.704;2023-09-19T09:49:04;19.30;64.90
81800;DHT22;71195;52.528;5.704;2023-09-19T09:52:00;19.30;65.00
81800;DHT22;71195;52.528;5.704;2023-09-19T09:54:32;19.30;65.00
81800;DHT22;71195;52.528;5.704;2023-09-19T09:57:11;19.30;64.90
81800;DHT22;71195;52.528;5.704;2023-09-19T09:59:48;19.40;64.80
81800;DHT22;71195;52.528;5.704;2023-09-19T10:02:20;19.50;64.70
81800;DHT22;71195;52.528;5.704;2023-09-19T10:04:55;19.70;64.50
81800;DHT22;71195;52.528;5.704;2023-09-19T10:07:33;19.70;64.30
81800;DHT22;71195;52.528;5.704;2023-09-19T10:10:07;19.70;64.30
81800;DHT22;71195;52.528;5.704;2023-09-19T10:12:46;19.80;64.20
81800;DHT22;71195;52.528;5.704;2023-09-19T10:15:17;19.90;64.00
81800;DHT22;71195;52.528;5.704;2023-09-19T10:17:47;20.00;63.90
81800;DHT22;71195;52.528;5.704;2023-09-19T10:20:21;20.00;63.70
81800;DHT22;71195;52.528;5.704;2023-09-19T10:23:06;20.00;63.70
81800;DHT22;71195;52.528;5.704;2023-09-19T10:25:40;20.00;63.70
81800;DHT22;71195;52.528;5.704;2023-09-19T10:28:13;20.00;63.60
81800;DHT22;71195;52.528;5.704;2023-09-19T10:30:44;20.00;63.60
81800;DHT22;71195;52.528;5.704;2023-09-19T10:33:15;20.00;63.70
81800;DHT22;71195;52.528;5.704;2023-09-19T10:35:47;20.00;63.60
81800;DHT22;71195;52.528;5.704;2023-09-19T10:38:18;20.00;63.50
81800;DHT22;71195;52.528;5.704;2023-09-19T10:40:51;20.10;63.40
81800;DHT22;71195;52.528;5.704;2023-09-19T10:43:30;20.10;63.40
81800;DHT22;71195;52.528;5.704;2023-09-19T10:46:01;20.10;63.30
81800;DHT22;71195;52.528;5.704;2023-09-19T10:48:32;20.20;63.40
81800;DHT22;71195;52.528;5.704;2023-09-19T10:51:05;20.30;63.40
81800;DHT22;71195;52.528;5.704;2023-09-19T10:53:43;20.30;63.20
81800;DHT22;71195;52.528;5.704;2023-09-19T10:56:18;20.30;63.20
81800;DHT22;71195;52.528;5.704;2023-09-19T10:58:50;20.40;63.20
81800;DHT22;71195;52.528;5.704;2023-09-19T11:01:19;20.50;63.00
81800;DHT22;71195;52.528;5.704;2023-09-19T11:04:24;20.60;63.00
81800;DHT22;71195;52.528;5.704;2023-09-19T11:07:04;20.70;62.70
81800;DHT22;71195;52.528;5.704;2023-09-19T11:09:48;20.80;62.60
81800;DHT22;71195;52.528;5.704;2023-09-19T11:18:54;21.10;62.30
81800;DHT22;71195;52.528;5.704;2023-09-19T11:21:50;21.00;62.30
81800;DHT22;71195;52.528;5.704;2023-09-19T11:24:33;21.00;62.30
81800;DHT22;71195;52.528;5.704;2023-09-19T11:27:13;21.10;62.30
81800;DHT22;71195;52.528;5.704;2023-09-19T11:29:44;21.10;62.30
81800;DHT22;71195;52.528;5.704;2023-09-19T11:32:15;21.10;62.30
81800;DHT22;71195;52.528;5.704;2023-09-19T11:34:49;21.10;62.20
81800;DHT22;71195;52.528;5.704;2023-09-19T11:40:37;21.20;61.90
81800;DHT22;71195;52.528;5.704;2023-09-19T11:46:08;21.10;61.80
81800;DHT22;71195;52.528;5.704;2023-09-19T11:48:41;21.00;62.10
81800;DHT22;71195;52.528;5.704;2023-09-19T11:51:17;21.00;62.10
81800;DHT22;71195;52.528;5.704;2023-09-19T11:53:54;21.00;62.10
81800;DHT22;71195;52.528;5.704;2023-09-19T11:56:24;21.00;62.00
81800;DHT22;71195;52.528;5.704;2023-09-19T11:58:55;21.10;61.90
81800;DHT22;71195;52.528;5.704;2023-09-19T12:01:29;21.40;61.60
81800;DHT22;71195;52.528;5.704;2023-09-19T12:04:01;21.70;61.20
81800;DHT22;71195;52.528;5.704;2023-09-19T12:06:34;21.70;61.10
81800;DHT22;71195;52.528;5.704;2023-09-19T12:09:05;21.90;61.00
81800;DHT22;71195;52.528;5.704;2023-09-19T12:11:42;21.90;60.90
81800;DHT22;71195;52.528;5.704;2023-09-19T12:14:11;21.90;61.00
81800;DHT22;71195;52.528;5.704;2023-09-19T12:16:53;21.80;61.00
81800;DHT22;71195;52.528;5.704;2023-09-19T12:19:23;21.70;61.00
81800;DHT22;71195;52.528;5.704;2023-09-19T12:21:59;21.70;61.10
81800;DHT22;71195;52.528;5.704;2023-09-19T12:24:32;21.50;61.10
81800;DHT22;71195;52.528;5.704;2023-09-19T12:27:05;21.40;61.10
81800;DHT22;71195;52.528;5.704;2023-09-19T12:29:45;21.40;61.20
81800;DHT22;71195;52.528;5.704;2023-09-19T12:32:15;21.40;61.10
81800;DHT22;71195;52.528;5.704;2023-09-19T12:34:53;21.40;61.30
81800;DHT22;71195;52.528;5.704;2023-09-19T12:37:28;21.30;61.20
81800;DHT22;71195;52.528;5.704;2023-09-19T12:40:04;21.20;61.40
81800;DHT22;71195;52.528;5.704;2023-09-19T12:42:42;21.10;61.50
81800;DHT22;71195;52.528;5.704;2023-09-19T12:45:12;21.00;61.70
81800;DHT22;71195;52.528;5.704;2023-09-19T12:51:00;20.80;61.40
81800;DHT22;71195;52.528;5.704;2023-09-19T12:53:35;20.80;61.60
81800;DHT22;71195;52.528;5.704;2023-09-19T12:56:06;20.70;61.60
81800;DHT22;71195;52.528;5.704;2023-09-19T12:58:48;20.70;61.50
81800;DHT22;71195;52.528;5.704;2023-09-19T13:01:19;20.60;61.50
81800;DHT22;71195;52.528;5.704;2023-09-19T13:04:10;20.60;61.50
81800;DHT22;71195;52.528;5.704;2023-09-19T13:06:41;20.60;61.50
81800;DHT22;71195;52.528;5.704;2023-09-19T13:09:14;20.60;61.50
81800;DHT22;71195;52.528;5.704;2023-09-19T13:11:44;20.60;61.40
81800;DHT22;71195;52.528;5.704;2023-09-19T13:14:16;20.70;61.30
81800;DHT22;71195;52.528;5.704;2023-09-19T13:16:59;20.70;61.30
81800;DHT22;71195;52.528;5.704;2023-09-19T13:19:38;20.70;61.20
81800;DHT22;71195;52.528;5.704;2023-09-19T13:22:36;20.80;61.20
81800;DHT22;71195;52.528;5.704;2023-09-19T13:25:12;20.80;61.10
81800;DHT22;71195;52.528;5.704;2023-09-19T13:27:45;20.80;61.10
81800;DHT22;71195;52.528;5.704;2023-09-19T13:30:18;20.80;61.10
81800;DHT22;71195;52.528;5.704;2023-09-19T13:32:47;20.90;61.10
81800;DHT22;71195;52.528;5.704;2023-09-19T13:35:17;20.90;61.10
81800;DHT22;71195;52.528;5.704;2023-09-19T13:37:47;20.90;61.50
81800;DHT22;71195;52.528;5.704;2023-09-19T13:40:20;20.80;61.80
81800;DHT22;71195;52.528;5.704;2023-09-19T13:42:49;20.70;61.80
81800;DHT22;71195;52.528;5.704;2023-09-19T13:45:20;20.70;61.80
81800;DHT22;71195;52.528;5.704;2023-09-19T13:47:51;20.70;61.80
81800;DHT22;71195;52.528;5.704;2023-09-19T13:50:20;20.70;62.00
81800;DHT22;71195;52.528;5.704;2023-09-19T13:52:50;20.70;62.00
81800;DHT22;71195;52.528;5.704;2023-09-19T13:55:22;20.70;62.00
81800;DHT22;71195;52.528;5.704;2023-09-19T14:00:24;20.90;62.00
81800;DHT22;71195;52.528;5.704;2023-09-19T14:02:53;20.80;61.90
81800;DHT22;71195;52.528;5.704;2023-09-19T14:05:22;20.80;61.80
81800;DHT22;71195;52.528;5.704;2023-09-19T14:07:54;20.80;61.80
81800;DHT22;71195;52.528;5.704;2023-09-19T14:10:23;20.80;61.70
81800;DHT22;71195;52.528;5.704;2023-09-19T14:12:53;20.70;61.80
81800;DHT22;71195;52.528;5.704;2023-09-19T14:15:26;20.70;61.80
81800;DHT22;71195;52.528;5.704;2023-09-19T14:17:59;20.60;61.80
81800;DHT22;71195;52.528;5.704;2023-09-19T14:20:28;20.60;62.00
81800;DHT22;71195;52.528;5.704;2023-09-19T14:22:58;20.50;62.20
81800;DHT22;71195;52.528;5.704;2023-09-19T14:25:28;20.40;62.30
81800;DHT22;71195;52.528;5.704;2023-09-19T14:27:57;20.30;62.30
81800;DHT22;71195;52.528;5.704;2023-09-19T14:30:29;20.30;62.50
81800;DHT22;71195;52.528;5.704;2023-09-19T14:32:58;20.30;62.60
81800;DHT22;71195;52.528;5.704;2023-09-19T14:35:28;20.30;62.60
81800;DHT22;71195;52.528;5.704;2023-09-19T14:37:57;20.30;62.70
81800;DHT22;71195;52.528;5.704;2023-09-19T14:40:27;20.30;62.80
81800;DHT22;71195;52.528;5.704;2023-09-19T14:42:57;20.20;62.90
81800;DHT22;71195;52.528;5.704;2023-09-19T14:45:29;20.10;63.00
81800;DHT22;71195;52.528;5.704;2023-09-19T14:47:58;20.10;63.10
81800;DHT22;71195;52.528;5.704;2023-09-19T14:50:27;20.10;63.10
81800;DHT22;71195;52.528;5.704;2023-09-19T14:52:56;20.00;63.20
81800;DHT22;71195;52.528;5.704;2023-09-19T14:55:28;20.00;63.20
81800;DHT22;71195;52.528;5.704;2023-09-19T14:58:00;20.00;63.20
81800;DHT22;71195;52.528;5.704;2023-09-19T15:00:32;20.00;63.20
81800;DHT22;71195;52.528;5.704;2023-09-19T15:03:01;20.00;63.20
81800;DHT22;71195;52.528;5.704;2023-09-19T15:05:30;20.00;63.20
81800;DHT22;71195;52.528;5.704;2023-09-19T15:08:00;19.90;63.20
81800;DHT22;71195;52.528;5.704;2023-09-19T15:10:29;19.90;63.20
81800;DHT22;71195;52.528;5.704;2023-09-19T15:12:58;19.90;63.20
81800;DHT22;71195;52.528;5.704;2023-09-19T15:15:28;19.90;63.20
81800;DHT22;71195;52.528;5.704;2023-09-19T15:17:59;19.90;63.20
81800;DHT22;71195;52.528;5.704;2023-09-19T15:20:29;19.90;63.30
81800;DHT22;71195;52.528;5.704;2023-09-19T15:22:58;19.80;63.40
81800;DHT22;71195;52.528;5.704;2023-09-19T15:25:27;19.70;63.60
81800;DHT22;71195;52.528;5.704;2023-09-19T15:27:56;19.60;63.80
81800;DHT22;71195;52.528;5.704;2023-09-19T15:30:30;19.50;64.00
81800;DHT22;71195;52.528;5.704;2023-09-19T15:33:02;19.40;64.20
81800;DHT22;71195;52.528;5.704;2023-09-19T15:35:32;19.30;64.50
81800;DHT22;71195;52.528;5.704;2023-09-19T15:38:03;19.30;64.70
81800;DHT22;71195;52.528;5.704;2023-09-19T15:40:33;19.20;64.80
81800;DHT22;71195;52.528;5.704;2023-09-19T15:43:05;19.10;65.10
81800;DHT22;71195;52.528;5.704;2023-09-19T15:45:34;19.00;65.30
81800;DHT22;71195;52.528;5.704;2023-09-19T15:48:06;19.00;65.40
81800;DHT22;71195;52.528;5.704;2023-09-19T15:50:35;18.90;65.60
81800;DHT22;71195;52.528;5.704;2023-09-19T15:53:04;18.90;65.60
81800;DHT22;71195;52.528;5.704;2023-09-19T15:55:38;18.80;65.60
81800;DHT22;71195;52.528;5.704;2023-09-19T15:58:08;18.80;65.70
81800;DHT22;71195;52.528;5.704;2023-09-19T16:00:40;18.80;65.70
81800;DHT22;71195;52.528;5.704;2023-09-19T16:03:12;18.80;65.70
81800;DHT22;71195;52.528;5.704;2023-09-19T16:05:41;18.70;65.80
81800;DHT22;71195;52.528;5.704;2023-09-19T16:08:10;18.80;65.80
81800;DHT22;71195;52.528;5.704;2023-09-19T16:10:41;18.80;65.70
81800;DHT22;71195;52.528;5.704;2023-09-19T16:13:10;18.80;65.70
81800;DHT22;71195;52.528;5.704;2023-09-19T16:15:42;18.80;65.70
81800;DHT22;71195;52.528;5.704;2023-09-19T16:18:14;18.80;65.80
81800;DHT22;71195;52.528;5.704;2023-09-19T16:20:43;18.80;65.70
81800;DHT22;71195;52.528;5.704;2023-09-19T16:23:12;18.80;65.70